Time;durP1;ratioP1;P1;durP2;ratioP2;P2;SDS_P1;SDS_P2;PMS_P1;PMS_P2;Temp;Humidity;BMP_temperature;BMP_pressure;BME280_temperature;BME280_humidity;BME280_pressure;Samples;Min_cycle;Max_cycle;Signal;HPM_P1;HPM_P2
2022/11/15 00:01:38;;;;;;;3.58;3.38;;;10.10;99.90;;;;;;5011180;28;20040;-81
2022/11/15 00:04:04;;;;;;;4.45;4.15;;;10.10;99.90;;;;;;5011059;28;20025;-80
2022/11/15 00:06:30;;;;;;;5.63;5.22;;;10.10;99.90;;;;;;5030745;28;20193;-81
2022/11/15 00:09:00;;;;;;;5.25;4.90;;;10.10;99.90;;;;;;5030336;28;20029;-80
2022/11/15 00:11:26;;;;;;;6.60;4.63;;;10.20;99.90;;;;;;5011266;28;20483;-80
2022/11/15 00:13:55;;;;;;;5.60;5.07;;;10.10;99.90;;;;;;5005720;28;20026;-80
2022/11/15 00:16:21;;;;;;;4.72;4.32;;;10.00;99.90;;;;;;5009268;28;20022;-80
2022/11/15 00:18:47;;;;;;;4.18;3.88;;;10.00;99.90;;;;;;5009042;28;20025;-81
2022/11/15 00:21:13;;;;;;;4.50;4.10;;;10.00;99.90;;;;;;5009144;28;20042;-81
2022/11/15 00:23:39;;;;;;;4.40;4.10;;;9.80;99.90;;;;;;5008959;28;20033;-80
2022/11/15 00:26:05;;;;;;;4.15;3.85;;;9.70;99.90;;;;;;5026016;28;20428;-80
2022/11/15 00:28:31;;;;;;;4.43;4.13;;;9.70;99.90;;;;;;5010882;28;20022;-81
2022/11/15 00:31:02;;;;;;;4.30;4.00;;;9.60;99.90;;;;;;5026224;28;20442;-81
2022/11/15 00:33:28;;;;;;;4.43;4.13;;;9.60;99.90;;;;;;4993061;28;20429;-81
2022/11/15 00:35:58;;;;;;;4.55;3.92;;;9.60;99.90;;;;;;5024124;28;20068;-81
2022/11/15 00:38:24;;;;;;;4.35;3.88;;;9.60;99.90;;;;;;5010964;28;20056;-80
2022/11/15 00:40:50;;;;;;;4.82;3.80;;;9.60;99.90;;;;;;5010920;28;20054;-81
2022/11/15 00:43:15;;;;;;;3.90;3.70;;;9.60;99.90;;;;;;5026266;28;20558;-81
2022/11/15 00:45:41;;;;;;;4.05;3.72;;;9.60;99.90;;;;;;5012916;28;20021;-80
2022/11/15 00:48:07;;;;;;;3.80;3.60;;;9.60;99.90;;;;;;5046408;28;20128;-81
2022/11/15 00:50:33;;;;;;;3.55;3.25;;;9.60;99.90;;;;;;5050424;28;20017;-80
2022/11/15 00:52:58;;;;;;;4.20;3.90;;;9.50;99.90;;;;;;5050267;28;20036;-81
2022/11/15 00:55:24;;;;;;;3.70;3.47;;;9.60;99.90;;;;;;5032558;28;20482;-81
2022/11/15 00:57:50;;;;;;;3.65;3.45;;;9.70;99.90;;;;;;5050405;28;20064;-80
2022/11/15 01:00:16;;;;;;;4.00;3.70;;;9.70;99.90;;;;;;5050330;28;20032;-81
2022/11/15 01:02:41;;;;;;;3.85;3.55;;;9.70;99.90;;;;;;5050276;28;20111;-81
2022/11/15 01:05:07;;;;;;;4.10;3.80;;;9.70;99.90;;;;;;5049949;28;20105;-81
2022/11/15 01:07:33;;;;;;;4.82;3.38;;;9.70;99.90;;;;;;5051614;28;20070;-81
2022/11/15 01:09:59;;;;;;;3.60;3.40;;;9.70;99.90;;;;;;5036068;28;20112;-81
2022/11/15 01:12:24;;;;;;;3.67;3.47;;;9.70;99.90;;;;;;5053959;28;20028;-81
2022/11/15 01:14:50;;;;;;;3.78;3.47;;;9.60;99.90;;;;;;5040367;28;20029;-81
2022/11/15 01:17:16;;;;;;;4.03;3.72;;;9.60;99.90;;;;;;5016538;28;20029;-81
2022/11/15 01:19:41;;;;;;;4.07;3.78;;;9.60;99.90;;;;;;5018090;28;20025;-81
2022/11/15 01:22:07;;;;;;;4.13;3.80;;;9.60;99.90;;;;;;5015864;28;20151;-81
2022/11/15 01:24:33;;;;;;;4.00;3.70;;;9.60;99.90;;;;;;5033772;28;20029;-81
2022/11/15 01:26:58;;;;;;;3.70;3.50;;;9.60;99.90;;;;;;5015947;28;20029;-81
2022/11/15 01:29:24;;;;;;;4.18;3.83;;;9.60;99.90;;;;;;5015807;28;20242;-81
2022/11/15 01:31:50;;;;;;;5.55;4.18;;;9.60;99.90;;;;;;5015996;28;20087;-81
2022/11/15 01:34:15;;;;;;;4.97;4.55;;;9.60;99.90;;;;;;5033440;28;20056;-81
2022/11/15 01:36:41;;;;;;;5.00;4.60;;;9.50;99.90;;;;;;5033557;28;20061;-81
2022/11/15 01:39:08;;;;;;;3.63;3.42;;;9.50;99.90;;;;;;5033417;28;20079;-81
2022/11/15 01:41:33;;;;;;;3.85;3.65;;;9.50;99.90;;;;;;5015967;28;20040;-82
2022/11/15 01:44:30;;;;;;;4.10;3.80;;;9.60;99.90;;;;;;5021931;28;20112;-81
2022/11/15 01:46:57;;;;;;;4.80;4.30;;;9.60;99.90;;;;;;5052938;28;20135;-81
2022/11/15 01:49:24;;;;;;;4.43;4.13;;;9.50;99.90;;;;;;5053251;28;20032;-81
2022/11/15 01:51:52;;;;;;;5.55;5.10;;;9.40;99.90;;;;;;5053175;28;20053;-81
2022/11/15 01:54:21;;;;;;;5.70;5.20;;;9.30;99.90;;;;;;5035082;28;20067;-81
2022/11/15 01:57:09;;;;;;;5.25;4.78;;;9.20;99.90;;;;;;5053215;28;20037;-81
2022/11/15 01:59:41;;;;;;;5.57;5.07;;;9.00;99.90;;;;;;5035246;28;20098;-81
2022/11/15 02:02:07;;;;;;;5.10;4.70;;;8.90;99.90;;;;;;5035279;28;20029;-81
2022/11/15 02:04:39;;;;;;;4.72;4.28;;;9.00;99.90;;;;;;5035102;28;20040;-81
2022/11/15 02:07:13;;;;;;;4.10;3.80;;;9.10;99.90;;;;;;5035143;28;20482;-81
2022/11/15 02:09:39;;;;;;;4.70;4.32;;;9.20;99.90;;;;;;5035007;28;20017;-81
2022/11/15 02:12:07;;;;;;;4.05;3.75;;;9.20;99.90;;;;;;5034882;28;20032;-81
2022/11/15 02:14:34;;;;;;;3.67;3.38;;;9.20;99.90;;;;;;5028769;28;20025;-81
2022/11/15 02:17:05;;;;;;;3.78;3.58;;;9.30;99.90;;;;;;5014059;28;20068;-81
2022/11/15 02:19:31;;;;;;;4.00;3.70;;;9.30;99.90;;;;;;5030255;28;20091;-81
2022/11/15 02:22:03;;;;;;;3.58;3.03;;;9.40;99.90;;;;;;5030825;28;20037;-81
2022/11/15 02:24:43;;;;;;;4.15;3.75;;;9.30;99.90;;;;;;5030615;28;20112;-80
2022/11/15 02:27:39;;;;;;;4.05;3.75;;;9.40;99.90;;;;;;5030742;28;20487;-81
2022/11/15 02:30:32;;;;;;;4.53;4.20;;;9.50;99.90;;;;;;5012598;28;20029;-80
2022/11/15 02:33:10;;;;;;;3.95;3.38;;;9.40;99.90;;;;;;5012686;28;20036;-81
2022/11/15 02:35:52;;;;;;;3.47;3.28;;;9.40;99.90;;;;;;5030897;28;20025;-81
2022/11/15 02:38:55;;;;;;;4.15;3.85;;;9.40;99.90;;;;;;5030952;28;20084;-81
2022/11/15 02:41:34;;;;;;;3.63;3.42;;;9.40;99.90;;;;;;5013166;28;20394;-81
2022/11/15 02:44:07;;;;;;;4.03;3.70;;;9.50;99.90;;;;;;5024339;28;20029;-81
2022/11/15 02:49:40;;;;;;;4.13;3.83;;;9.50;99.90;;;;;;5052205;28;20473;-81
2022/11/15 02:52:06;;;;;;;5.47;3.67;;;9.60;99.90;;;;;;5034234;28;20025;-81
2022/11/15 02:54:33;;;;;;;3.80;3.50;;;9.60;99.90;;;;;;5051875;28;20342;-81
2022/11/15 02:57:04;;;;;;;4.03;3.72;;;9.60;99.90;;;;;;5033996;28;20079;-81
2022/11/15 03:00:03;;;;;;;4.10;3.80;;;9.50;99.90;;;;;;5051878;28;20029;-81
2022/11/15 03:02:50;;;;;;;7.13;4.18;;;9.40;99.90;;;;;;5033613;28;20043;-81
2022/11/15 03:05:19;;;;;;;4.30;3.90;;;9.40;99.90;;;;;;5051680;28;20075;-81
2022/11/15 03:08:00;;;;;;;4.53;3.97;;;9.40;99.90;;;;;;5051846;28;20390;-81
2022/11/15 03:10:28;;;;;;;3.17;2.97;;;9.40;99.90;;;;;;5033788;28;20025;-81
2022/11/15 03:12:59;;;;;;;3.17;2.97;;;9.30;99.90;;;;;;5051376;28;20027;-81
2022/11/15 03:15:36;;;;;;;3.50;3.30;;;9.30;99.90;;;;;;5033393;28;20026;-81
2022/11/15 03:18:09;;;;;;;3.70;3.50;;;9.30;99.90;;;;;;5014104;28;20496;-81
2022/11/15 03:20:37;;;;;;;3.80;3.50;;;9.30;99.90;;;;;;5013797;28;20065;-81
2022/11/15 03:23:09;;;;;;;4.13;3.83;;;9.20;99.90;;;;;;5046803;28;20036;-81
2022/11/15 03:25:40;;;;;;;4.95;4.00;;;9.20;99.90;;;;;;5031603;28;20028;-81
2022/11/15 03:28:09;;;;;;;4.25;3.95;;;9.20;99.90;;;;;;5020477;28;20029;-81
2022/11/15 03:30:38;;;;;;;4.53;4.18;;;9.00;99.90;;;;;;5050638;28;20210;-81
2022/11/15 03:33:05;;;;;;;4.50;4.05;;;8.90;99.90;;;;;;5066435;28;20024;-81
2022/11/15 03:35:37;;;;;;;4.35;3.95;;;8.90;99.90;;;;;;5051319;28;20025;-81
2022/11/15 03:38:19;;;;;;;4.05;3.75;;;8.90;99.90;;;;;;5033548;28;20090;-81
2022/11/15 03:41:05;;;;;;;4.80;4.40;;;9.00;99.90;;;;;;5051263;28;20082;-81
2022/11/15 03:43:39;;;;;;;3.50;3.30;;;9.00;99.90;;;;;;5030687;28;20394;-81
2022/11/15 03:46:14;;;;;;;4.72;3.38;;;9.10;99.90;;;;;;5031035;28;20033;-81
2022/11/15 03:48:46;;;;;;;4.20;3.90;;;9.10;99.90;;;;;;5013284;28;20463;-81
2022/11/15 03:51:13;;;;;;;3.83;3.53;;;9.10;99.90;;;;;;5031036;28;20026;-81
2022/11/15 03:53:40;;;;;;;4.50;4.10;;;8.90;99.90;;;;;;5012984;28;20025;-80
2022/11/15 03:56:06;;;;;;;4.55;3.95;;;8.80;99.90;;;;;;5031038;28;20030;-81
2022/11/15 03:58:32;;;;;;;4.20;3.90;;;8.70;99.90;;;;;;5013306;28;20029;-81
2022/11/15 04:00:59;;;;;;;3.95;3.65;;;8.60;99.90;;;;;;5030910;28;20063;-81
2022/11/15 04:03:25;;;;;;;4.10;3.80;;;8.60;99.90;;;;;;5030862;28;20014;-81
2022/11/15 04:05:51;;;;;;;4.35;4.05;;;8.70;99.90;;;;;;5030932;28;20056;-81
2022/11/15 04:08:17;;;;;;;4.35;4.05;;;8.80;99.90;;;;;;5013033;28;20068;-81
2022/11/15 04:10:43;;;;;;;4.45;4.05;;;8.90;99.90;;;;;;5030762;28;20032;-81
2022/11/15 04:13:09;;;;;;;4.80;4.43;;;9.00;99.90;;;;;;5030851;28;20022;-81
2022/11/15 04:15:35;;;;;;;5.07;4.60;;;9.10;99.90;;;;;;5030557;28;20033;-81
2022/11/15 04:18:00;;;;;;;4.20;3.90;;;9.30;99.90;;;;;;5030842;28;20029;-80
2022/11/15 04:26:25;;;;;;;4.53;4.22;;;9.40;99.90;;;;;;5031021;28;20507;-81
2022/11/15 04:31:35;;;;;;;4.30;3.70;;;9.50;99.90;;;;;;5030746;28;20660;-81
2022/11/15 04:34:00;;;;;;;4.13;3.83;;;9.60;99.90;;;;;;5030494;28;20029;-81
2022/11/15 04:39:10;;;;;;;5.20;3.88;;;9.60;99.90;;;;;;5030642;28;20423;-81
2022/11/15 04:41:36;;;;;;;4.30;4.00;;;9.50;99.90;;;;;;5012918;28;20041;-81
2022/11/15 04:44:02;;;;;;;4.22;3.92;;;9.40;99.90;;;;;;5049367;28;20502;-81
2022/11/15 04:46:28;;;;;;;6.55;4.93;;;9.40;99.90;;;;;;5031846;28;20041;-81
2022/11/15 04:48:54;;;;;;;6.40;5.40;;;9.30;99.90;;;;;;5014594;28;20029;-81
2022/11/15 04:51:20;;;;;;;6.82;5.30;;;9.20;99.90;;;;;;5032658;28;20025;-81
2022/11/15 04:53:46;;;;;;;6.45;5.85;;;9.20;99.90;;;;;;5034020;28;20032;-81
2022/11/15 04:56:12;;;;;;;5.13;4.65;;;9.20;99.90;;;;;;5034441;28;20029;-81
2022/11/15 04:58:38;;;;;;;3.78;3.58;;;9.20;99.90;;;;;;5034091;28;20025;-81
2022/11/15 05:01:13;;;;;;;4.38;3.97;;;9.20;99.90;;;;;;5016447;28;20105;-81
2022/11/15 05:06:23;;;;;;;4.40;4.10;;;9.10;99.90;;;;;;5034295;28;20036;-81
2022/11/15 05:08:49;;;;;;;8.60;4.40;;;8.90;99.90;;;;;;5034097;28;20387;-81
2022/11/15 05:11:14;;;;;;;8.32;4.95;;;8.90;99.90;;;;;;5034077;28;20041;-81
2022/11/15 05:13:40;;;;;;;6.03;4.93;;;8.90;99.90;;;;;;5030024;28;20029;-81
2022/11/15 05:16:06;;;;;;;8.35;5.55;;;8.90;99.90;;;;;;5014311;28;20045;-81
2022/11/15 05:18:32;;;;;;;6.22;5.63;;;8.80;99.90;;;;;;5014138;28;20116;-81
2022/11/15 05:21:07;;;;;;;6.68;5.18;;;8.80;99.90;;;;;;5013983;28;20065;-80
2022/11/15 05:23:33;;;;;;;6.32;5.82;;;8.70;99.90;;;;;;5013882;28;20494;-81
2022/11/15 05:26:00;;;;;;;6.78;6.15;;;8.60;99.90;;;;;;5014026;28;20108;-81
2022/11/15 05:28:25;;;;;;;6.30;5.78;;;8.70;99.90;;;;;;5014157;28;20022;-81
2022/11/15 05:30:51;;;;;;;5.82;5.32;;;8.50;99.90;;;;;;5015373;28;20386;-81
2022/11/15 05:33:17;;;;;;;6.72;5.68;;;8.50;99.90;;;;;;5001319;28;20116;-81
2022/11/15 05:35:48;;;;;;;7.43;6.60;;;8.50;99.90;;;;;;5003743;28;20113;-81
2022/11/15 05:38:17;;;;;;;6.57;5.83;;;8.50;99.90;;;;;;5006125;28;20066;-80
2022/11/15 05:40:43;;;;;;;7.47;5.97;;;8.50;99.90;;;;;;5003074;28;20754;-81
2022/11/15 05:43:10;;;;;;;6.60;6.00;;;8.60;99.90;;;;;;5004226;28;20114;-81
2022/11/15 05:45:36;;;;;;;6.15;5.45;;;8.60;99.90;;;;;;5023065;28;20014;-81
2022/11/15 05:48:08;;;;;;;5.38;4.88;;;8.60;99.90;;;;;;5036735;28;20087;-81
2022/11/15 05:50:37;;;;;;;4.75;4.35;;;8.50;99.90;;;;;;5023866;28;20013;-80
2022/11/15 05:53:03;;;;;;;4.60;4.20;;;8.50;99.90;;;;;;5025317;28;20116;-80
2022/11/15 05:55:29;;;;;;;5.00;4.43;;;8.60;99.90;;;;;;5023037;28;21033;-80
2022/11/15 05:57:54;;;;;;;4.75;4.10;;;8.70;99.90;;;;;;5041527;28;20028;-80
2022/11/15 06:00:20;;;;;;;4.28;4.03;;;8.80;99.90;;;;;;5025212;28;20032;-81
2022/11/15 06:02:46;;;;;;;4.80;4.40;;;8.80;99.90;;;;;;5029874;28;20491;-80
2022/11/15 06:05:12;;;;;;;4.38;4.07;;;8.90;99.90;;;;;;5048231;28;20103;-80
2022/11/15 06:07:37;;;;;;;4.32;4.03;;;8.80;99.90;;;;;;5034540;28;20025;-80
2022/11/15 06:10:03;;;;;;;6.03;4.82;;;8.80;99.90;;;;;;5016515;28;20472;-80
2022/11/15 06:12:29;;;;;;;4.68;3.92;;;8.70;99.90;;;;;;5033933;28;20391;-80
2022/11/15 06:14:55;;;;;;;5.43;4.07;;;8.70;99.90;;;;;;5018978;28;20021;-80
2022/11/15 06:17:20;;;;;;;4.22;3.92;;;8.70;99.90;;;;;;5030514;28;20032;-80
2022/11/15 06:19:46;;;;;;;3.92;3.72;;;8.80;99.90;;;;;;5054171;28;20395;-80
2022/11/15 06:22:12;;;;;;;5.40;4.32;;;8.80;99.90;;;;;;5054252;28;20025;-80
2022/11/15 06:24:37;;;;;;;4.88;4.47;;;8.90;99.90;;;;;;5036510;28;20028;-80
2022/11/15 06:27:03;;;;;;;6.90;5.32;;;9.00;99.90;;;;;;5054459;28;20022;-81
2022/11/15 06:29:29;;;;;;;4.55;4.15;;;9.00;99.90;;;;;;5036516;28;20029;-80
2022/11/15 06:31:54;;;;;;;10.40;8.23;;;9.00;99.90;;;;;;5054426;28;20033;-80
2022/11/15 06:34:20;;;;;;;8.02;7.22;;;8.70;99.90;;;;;;5054024;28;20471;-80
2022/11/15 06:36:45;;;;;;;8.30;7.30;;;8.50;99.90;;;;;;5036417;28;20390;-80
2022/11/15 06:39:11;;;;;;;12.98;7.55;;;8.60;99.90;;;;;;5054312;28;20025;-81
2022/11/15 06:41:37;;;;;;;11.32;7.75;;;8.50;99.90;;;;;;5054150;28;20478;-80
2022/11/15 06:44:03;;;;;;;14.30;9.00;;;8.40;99.90;;;;;;5029219;28;20460;-81
2022/11/15 06:46:28;;;;;;;12.50;8.10;;;8.40;99.90;;;;;;5031272;28;20460;-80
2022/11/15 06:48:54;;;;;;;12.23;8.55;;;8.40;99.90;;;;;;5014332;28;20018;-80
2022/11/15 06:51:20;;;;;;;12.82;9.70;;;8.40;99.90;;;;;;5029475;28;20152;-81
2022/11/15 06:53:46;;;;;;;15.52;10.60;;;8.40;99.90;;;;;;5020047;28;20025;-81
2022/11/15 06:56:12;;;;;;;13.30;9.82;;;8.40;99.90;;;;;;5033712;28;20160;-80
2022/11/15 06:58:37;;;;;;;14.70;10.90;;;8.40;99.90;;;;;;5016106;28;20163;-81
2022/11/15 07:01:09;;;;;;;10.68;9.25;;;8.50;99.90;;;;;;5033792;28;20029;-80
2022/11/15 07:03:36;;;;;;;12.60;10.55;;;8.40;99.90;;;;;;5016070;28;20384;-80
2022/11/15 07:06:02;;;;;;;16.35;10.73;;;8.40;99.90;;;;;;5015867;28;20033;-80
2022/11/15 07:08:29;;;;;;;17.92;11.95;;;8.50;99.90;;;;;;5033809;28;20025;-80
2022/11/15 07:10:57;;;;;;;18.30;11.82;;;8.50;99.90;;;;;;5033609;28;20013;-80
2022/11/15 07:13:27;;;;;;;17.25;12.18;;;8.60;99.90;;;;;;5033449;28;20048;-80
2022/11/15 07:15:53;;;;;;;18.90;11.73;;;8.70;99.90;;;;;;5033622;28;20052;-80
2022/11/15 07:18:19;;;;;;;14.93;11.40;;;8.70;99.90;;;;;;5015552;28;20669;-81
2022/11/15 07:20:44;;;;;;;15.77;11.07;;;8.80;99.90;;;;;;5033585;28;20483;-80
2022/11/15 07:23:10;;;;;;;12.95;10.60;;;8.90;99.90;;;;;;5033233;28;20021;-81
2022/11/15 07:25:36;;;;;;;11.52;8.95;;;8.90;99.90;;;;;;5015391;28;20650;-80
2022/11/15 07:28:03;;;;;;;14.23;8.85;;;8.90;99.90;;;;;;5015631;28;20116;-80
2022/11/15 07:30:29;;;;;;;9.02;8.07;;;8.90;99.90;;;;;;5015573;28;20733;-80
2022/11/15 07:32:59;;;;;;;12.18;7.72;;;9.00;99.90;;;;;;5010803;28;20039;-80
2022/11/15 07:35:26;;;;;;;8.38;7.43;;;9.10;99.90;;;;;;5033206;28;20022;-79
2022/11/15 07:37:55;;;;;;;7.70;7.00;;;9.10;99.90;;;;;;5033223;28;20034;-81
2022/11/15 07:40:21;;;;;;;9.50;7.55;;;9.10;99.90;;;;;;5032558;28;20025;-81
2022/11/15 07:42:52;;;;;;;7.85;7.10;;;9.10;99.90;;;;;;5033021;28;20025;-81
2022/11/15 07:45:18;;;;;;;6.40;5.80;;;9.20;99.90;;;;;;4998257;28;20476;-81
2022/11/15 07:47:49;;;;;;;6.07;5.57;;;9.30;99.90;;;;;;5025975;28;20533;-80
2022/11/15 07:50:15;;;;;;;6.72;6.13;;;9.30;99.90;;;;;;5032786;28;20034;-81
2022/11/15 07:52:40;;;;;;;5.78;5.28;;;9.40;99.90;;;;;;5014939;28;20052;-81
2022/11/15 07:55:07;;;;;;;4.72;4.35;;;9.40;99.90;;;;;;5047808;28;20061;-81
2022/11/15 07:57:32;;;;;;;6.85;5.13;;;9.50;99.90;;;;;;5032987;28;20060;-81
2022/11/15 07:59:58;;;;;;;7.15;4.65;;;9.50;99.90;;;;;;5032860;28;20546;-81
2022/11/15 08:02:23;;;;;;;7.10;4.40;;;9.60;99.90;;;;;;5032710;28;20064;-81
2022/11/15 08:04:49;;;;;;;4.97;4.57;;;9.60;99.90;;;;;;5048028;28;20491;-80
2022/11/15 08:07:15;;;;;;;5.07;4.60;;;9.70;99.90;;;;;;5015190;28;20026;-80
2022/11/15 08:09:40;;;;;;;4.80;4.30;;;9.70;99.90;;;;;;5033337;28;20801;-81
2022/11/15 08:12:06;;;;;;;9.38;7.70;;;9.70;99.90;;;;;;5021271;28;20039;-81
2022/11/15 08:14:32;;;;;;;12.30;10.32;;;9.80;99.90;;;;;;5030284;28;20028;-80
2022/11/15 08:16:58;;;;;;;12.00;10.75;;;9.80;99.90;;;;;;5019079;28;20029;-81
2022/11/15 08:19:24;;;;;;;13.77;10.52;;;9.80;99.90;;;;;;5034860;28;20022;-80
2022/11/15 08:21:49;;;;;;;14.80;9.57;;;9.80;99.90;;;;;;5035943;28;20048;-80
2022/11/15 08:24:15;;;;;;;11.43;10.23;;;9.90;99.90;;;;;;5041598;28;20032;-80
2022/11/15 08:26:41;;;;;;;11.13;9.38;;;9.90;99.90;;;;;;5037904;28;20483;-80
2022/11/15 08:29:09;;;;;;;13.63;10.90;;;9.90;99.90;;;;;;5046969;28;20025;-80
2022/11/15 08:31:36;;;;;;;17.98;12.65;;;9.90;99.90;;;;;;5051727;28;20024;-80
2022/11/15 08:34:03;;;;;;;16.20;13.00;;;9.90;99.90;;;;;;5034643;28;20505;-81
2022/11/15 08:36:29;;;;;;;20.92;14.20;;;9.90;99.90;;;;;;5050480;28;20048;-78
2022/11/15 08:38:55;;;;;;;20.13;14.90;;;9.90;99.90;;;;;;5048919;28;20479;-78
2022/11/15 08:41:26;;;;;;;20.77;14.85;;;10.00;99.90;;;;;;5048623;28;20029;-78
2022/11/15 08:43:52;;;;;;;22.13;15.07;;;10.00;99.90;;;;;;5043297;28;20025;-78
2022/11/15 08:46:18;;;;;;;26.02;16.42;;;10.00;99.90;;;;;;5011043;28;20427;-78
2022/11/15 08:48:43;;;;;;;25.77;17.50;;;9.90;99.90;;;;;;5010844;28;20216;-78
2022/11/15 08:51:09;;;;;;;28.60;19.30;;;9.80;99.90;;;;;;5011031;28;20034;-78
2022/11/15 08:53:35;;;;;;;33.78;21.30;;;9.90;99.90;;;;;;5044905;28;20076;-78
2022/11/15 08:56:01;;;;;;;33.95;21.58;;;9.90;99.90;;;;;;5030305;28;20049;-78
2022/11/15 08:58:27;;;;;;;38.70;21.38;;;9.90;99.90;;;;;;5045708;28;20025;-78
2022/11/15 09:00:52;;;;;;;38.42;22.23;;;9.90;99.90;;;;;;5043916;28;20025;-78
2022/11/15 09:03:18;;;;;;;35.28;21.17;;;9.90;99.90;;;;;;5049983;28;20083;-78
2022/11/15 09:05:44;;;;;;;35.25;20.10;;;9.90;99.90;;;;;;5050443;28;20025;-78
2022/11/15 09:08:11;;;;;;;34.65;21.65;;;9.90;99.90;;;;;;5050375;28;20371;-78
2022/11/15 09:10:36;;;;;;;40.17;22.35;;;9.90;99.90;;;;;;5032314;28;20268;-78
2022/11/15 09:13:02;;;;;;;36.88;20.45;;;9.90;99.90;;;;;;5032376;28;20029;-78
2022/11/15 09:15:28;;;;;;;43.15;21.52;;;9.90;99.90;;;;;;5032097;28;20493;-78
2022/11/15 09:17:53;;;;;;;41.08;21.30;;;10.00;99.90;;;;;;5032267;28;20029;-78
2022/11/15 09:20:19;;;;;;;35.72;21.63;;;10.00;99.90;;;;;;5050383;28;20466;-78
2022/11/15 09:22:45;;;;;;;35.40;21.42;;;9.90;99.90;;;;;;5050064;28;20435;-78
2022/11/15 09:25:10;;;;;;;40.63;22.88;;;9.90;99.90;;;;;;5031757;28;20058;-78
2022/11/15 09:27:36;;;;;;;39.78;23.35;;;9.90;99.90;;;;;;5032358;28;20032;-78
2022/11/15 09:30:03;;;;;;;50.35;24.75;;;9.80;99.90;;;;;;5050073;28;20115;-78
2022/11/15 09:32:30;;;;;;;42.20;24.05;;;9.80;99.90;;;;;;5033952;28;20037;-78
2022/11/15 09:34:56;;;;;;;38.33;24.77;;;9.80;99.90;;;;;;5053647;28;20021;-78
2022/11/15 09:37:21;;;;;;;42.28;23.60;;;9.90;99.90;;;;;;5053520;28;20086;-78
2022/11/15 09:39:47;;;;;;;40.00;25.95;;;9.80;99.90;;;;;;5035498;28;20479;-78
2022/11/15 09:42:24;;;;;;;38.08;24.17;;;9.90;99.90;;;;;;5053338;28;20036;-78
2022/11/15 09:45:13;;;;;;;38.85;23.10;;;9.90;99.90;;;;;;5021808;28;20033;-78
2022/11/15 09:47:48;;;;;;;38.10;24.85;;;9.90;99.90;;;;;;5033243;28;20056;-78
2022/11/15 09:50:19;;;;;;;39.97;24.55;;;9.90;99.90;;;;;;5033150;28;20045;-78
2022/11/15 09:52:45;;;;;;;41.20;23.10;;;10.00;99.90;;;;;;5015667;28;20135;-78
2022/11/15 09:55:14;;;;;;;37.10;23.35;;;10.10;99.90;;;;;;5015306;28;20487;-78
2022/11/15 09:58:09;;;;;;;36.08;23.55;;;10.10;99.90;;;;;;5033255;28;20029;-78
2022/11/15 10:00:42;;;;;;;45.00;23.67;;;10.10;99.90;;;;;;5033126;28;20037;-78
2022/11/15 10:03:15;;;;;;;39.45;23.27;;;10.20;99.90;;;;;;5032838;28;20101;-78
2022/11/15 10:05:43;;;;;;;41.55;25.38;;;10.30;99.90;;;;;;5033081;28;20017;-78
2022/11/15 10:08:27;;;;;;;38.25;24.17;;;10.30;99.90;;;;;;5048512;28;20021;-78
2022/11/15 10:11:17;;;;;;;35.58;22.55;;;10.30;99.90;;;;;;5032920;28;20112;-78
2022/11/15 10:13:47;;;;;;;35.30;23.30;;;10.40;99.90;;;;;;5019308;28;20395;-78
2022/11/15 10:16:16;;;;;;;37.90;23.13;;;10.40;99.90;;;;;;5034874;28;20032;-78
2022/11/15 10:19:04;;;;;;;37.03;23.90;;;10.40;99.90;;;;;;5035012;28;20498;-78
2022/11/15 10:21:35;;;;;;;41.03;25.05;;;10.40;99.90;;;;;;5034727;28;20548;-78
2022/11/15 10:24:01;;;;;;;41.90;24.90;;;10.40;99.90;;;;;;5034679;28;20032;-78
2022/11/15 10:26:28;;;;;;;38.40;24.45;;;10.40;99.90;;;;;;5052793;28;20025;-78
2022/11/15 10:28:53;;;;;;;42.45;25.73;;;10.40;99.90;;;;;;5052522;28;20018;-78
2022/11/15 10:31:22;;;;;;;39.25;24.20;;;10.40;99.90;;;;;;5034146;28;20037;-78
2022/11/15 10:33:49;;;;;;;40.13;25.52;;;10.30;99.90;;;;;;5010062;28;20056;-78
2022/11/15 10:36:17;;;;;;;39.65;24.52;;;10.40;99.90;;;;;;5010267;28;20021;-78
2022/11/15 10:38:52;;;;;;;43.50;25.75;;;10.40;99.90;;;;;;5031590;28;20021;-78
2022/11/15 10:41:31;;;;;;;42.72;24.90;;;10.40;99.90;;;;;;5034000;28;20029;-78
2022/11/15 10:44:15;;;;;;;40.35;24.27;;;10.40;99.90;;;;;;5046047;28;20036;-77
2022/11/15 10:46:43;;;;;;;38.22;24.05;;;10.40;99.90;;;;;;5014625;28;20448;-78
2022/11/15 10:49:15;;;;;;;40.63;24.95;;;10.40;99.90;;;;;;5031970;28;20021;-78
2022/11/15 10:51:45;;;;;;;39.25;23.52;;;10.50;99.90;;;;;;5034257;28;20387;-78
2022/11/15 10:54:12;;;;;;;50.05;25.85;;;10.50;99.90;;;;;;5050712;28;20104;-78
2022/11/15 10:56:39;;;;;;;43.60;25.73;;;10.60;99.90;;;;;;5050977;28;20029;-79
2022/11/15 10:59:04;;;;;;;43.35;27.00;;;10.60;99.90;;;;;;5033162;28;20500;-78
2022/11/15 11:01:30;;;;;;;40.38;25.63;;;10.60;99.90;;;;;;5051147;28;20021;-78
2022/11/15 11:04:08;;;;;;;42.95;26.88;;;10.60;99.90;;;;;;5032821;28;20483;-77
2022/11/15 11:07:19;;;;;;;47.80;28.35;;;10.60;99.90;;;;;;5049980;28;20479;-77
2022/11/15 11:09:56;;;;;;;43.47;26.30;;;10.60;99.90;;;;;;5013325;28;20040;-77
2022/11/15 11:12:29;;;;;;;41.75;26.00;;;10.60;99.90;;;;;;5049871;28;20432;-77
2022/11/15 11:14:55;;;;;;;47.28;27.13;;;10.70;99.90;;;;;;5017951;28;20084;-77
2022/11/15 11:17:51;;;;;;;44.38;26.63;;;10.80;99.90;;;;;;5012206;28;20022;-77
2022/11/15 11:20:36;;;;;;;42.17;26.15;;;10.80;99.90;;;;;;5031190;28;20506;-77
2022/11/15 11:23:39;;;;;;;41.20;23.77;;;10.80;99.90;;;;;;5031374;28;20088;-77
2022/11/15 11:26:24;;;;;;;36.83;23.17;;;10.80;99.90;;;;;;5004802;28;20476;-77
2022/11/15 11:29:17;;;;;;;34.67;22.65;;;10.90;99.90;;;;;;5031487;28;20032;-76
2022/11/15 11:31:57;;;;;;;39.42;23.27;;;10.90;99.90;;;;;;5046895;28;20390;-76
2022/11/15 11:34:26;;;;;;;36.50;23.10;;;10.90;99.90;;;;;;5050037;28;20032;-76
2022/11/15 11:37:02;;;;;;;44.05;25.52;;;10.90;99.90;;;;;;5033289;28;20040;-76
2022/11/15 11:40:14;;;;;;;45.22;26.95;;;11.00;99.90;;;;;;5051317;28;20024;-77
2022/11/15 11:42:59;;;;;;;;;;;11.00;99.90;;;;;;4954111;28;20126;-76
2022/11/15 11:45:49;;;;;;;32.00;22.77;;;11.00;99.90;;;;;;5008540;28;19912;-76
2022/11/15 11:48:21;;;;;;;33.17;22.25;;;11.00;99.90;;;;;;5031095;28;20137;-76
2022/11/15 11:50:47;;;;;;;32.35;21.45;;;11.00;99.90;;;;;;5031364;28;20037;-76
2022/11/15 11:54:06;;;;;;;35.50;22.20;;;11.00;99.90;;;;;;5045243;28;20423;-76
2022/11/15 11:56:34;;;;;;;33.80;22.65;;;11.00;99.90;;;;;;4989238;28;20048;-76
2022/11/15 11:59:15;;;;;;;35.97;24.10;;;11.00;99.90;;;;;;5013291;28;20108;-76
2022/11/15 12:01:44;;;;;;;31.23;21.35;;;11.00;99.90;;;;;;5013147;28;20103;-76
2022/11/15 12:04:29;;;;;;;36.00;23.15;;;11.00;99.90;;;;;;5013169;28;20018;-76
2022/11/15 12:07:27;;;;;;;28.05;19.85;;;11.10;99.90;;;;;;5046378;28;20033;-76
2022/11/15 12:10:05;;;;;;;33.08;21.00;;;11.10;99.90;;;;;;5012969;28;20168;-76
2022/11/15 12:12:34;;;;;;;31.58;21.00;;;11.20;99.90;;;;;;5012931;28;20029;-76
2022/11/15 12:15:18;;;;;;;26.27;18.13;;;11.20;99.90;;;;;;5013132;28;20029;-77
2022/11/15 12:17:45;;;;;;;25.85;18.48;;;11.20;99.90;;;;;;5013142;28;20033;-76
2022/11/15 12:20:18;;;;;;;24.60;18.15;;;11.20;99.90;;;;;;5030772;28;20039;-77
2022/11/15 12:23:05;;;;;;;25.63;18.88;;;11.20;99.90;;;;;;5012920;28;20120;-76
2022/11/15 12:25:40;;;;;;;30.15;19.73;;;11.20;99.90;;;;;;5030930;28;20022;-76
2022/11/15 12:28:25;;;;;;;32.28;21.38;;;11.20;99.90;;;;;;5012995;28;20068;-77
2022/11/15 12:31:16;;;;;;;28.02;19.35;;;11.30;99.90;;;;;;5030826;28;20491;-77
2022/11/15 12:33:47;;;;;;;32.17;21.77;;;11.30;99.90;;;;;;5030513;28;20032;-77
2022/11/15 12:36:22;;;;;;;33.33;22.55;;;11.30;99.90;;;;;;5012723;28;20091;-76
2022/11/15 12:38:56;;;;;;;38.10;24.52;;;11.30;99.90;;;;;;5030470;28;20080;-76
2022/11/15 12:41:28;;;;;;;35.47;21.70;;;11.30;99.90;;;;;;5030641;28;20472;-76
2022/11/15 12:43:55;;;;;;;29.77;19.55;;;11.30;99.90;;;;;;5030573;28;20045;-76
2022/11/15 12:46:30;;;;;;;34.38;20.90;;;11.40;99.90;;;;;;5012658;28;20450;-76
2022/11/15 12:48:59;;;;;;;32.53;20.75;;;11.40;99.90;;;;;;5030642;28;20026;-76
2022/11/15 12:51:46;;;;;;;27.10;19.02;;;11.40;99.90;;;;;;5012709;28;20028;-77
2022/11/15 12:54:21;;;;;;;30.98;19.63;;;11.40;99.90;;;;;;5030584;28;20075;-76
2022/11/15 12:57:07;;;;;;;26.98;19.40;;;11.50;99.90;;;;;;5023629;28;20056;-76
2022/11/15 12:59:58;;;;;;;26.08;18.65;;;11.40;99.90;;;;;;5050225;28;20025;-76
2022/11/15 13:02:37;;;;;;;33.70;22.13;;;11.50;99.90;;;;;;5050075;28;20451;-76
2022/11/15 13:05:22;;;;;;;43.22;26.80;;;11.40;99.90;;;;;;5053979;28;20509;-77
2022/11/15 13:07:47;;;;;;;43.05;28.70;;;11.30;99.90;;;;;;5036403;28;20556;-77
2022/11/15 13:10:13;;;;;;;38.33;25.20;;;11.40;99.90;;;;;;5035990;28;20068;-77
2022/11/15 13:12:45;;;;;;;28.10;21.73;;;11.40;99.90;;;;;;5053916;28;20032;-76
2022/11/15 13:15:17;;;;;;;33.45;20.42;;;11.40;99.90;;;;;;5019812;28;20511;-77
2022/11/15 13:17:53;;;;;;;31.15;22.17;;;11.40;99.90;;;;;;5016105;28;20283;-77
2022/11/15 13:20:31;;;;;;;31.45;21.48;;;11.40;99.90;;;;;;5016024;28;20495;-77